sensor_id;sensor_type;location;lat;lon;timestamp;P1;durP1;ratioP1;P2;durP2;ratioP2
4452;SDS011;2239;48.152;11.584;2022-11-11T00:00:19;2.73;;;0.73;;
4452;SDS011;2239;48.152;11.584;2022-11-11T00:02:45;0.80;;;0.80;;
4452;SDS011;2239;48.152;11.584;2022-11-11T00:05:11;1.67;;;0.88;;
4452;SDS011;2239;48.152;11.584;2022-11-11T00:07:37;2.40;;;0.70;;
4452;SDS011;2239;48.152;11.584;2022-11-11T00:10:03;2.03;;;1.40;;
4452;SDS011;2239;48.152;11.584;2022-11-11T00:12:28;1.63;;;0.80;;
4452;SDS011;2239;48.152;11.584;2022-11-11T00:14:54;1.37;;;0.77;;
4452;SDS011;2239;48.152;11.584;2022-11-11T00:17:20;1.93;;;0.73;;
4452;SDS011;2239;48.152;11.584;2022-11-11T00:20:04;1.75;;;0.85;;
4452;SDS011;2239;48.152;11.584;2022-11-11T00:22:48;1.77;;;0.95;;
4452;SDS011;2239;48.152;11.584;2022-11-11T00:25:33;3.65;;;1.55;;
4452;SDS011;2239;48.152;11.584;2022-11-11T00:27:58;4.40;;;1.20;;
4452;SDS011;2239;48.152;11.584;2022-11-11T00:30:24;1.87;;;1.50;;
4452;SDS011;2239;48.152;11.584;2022-11-11T00:32:49;1.23;;;1.13;;
4452;SDS011;2239;48.152;11.584;2022-11-11T00:35:15;3.27;;;1.40;;
4452;SDS011;2239;48.152;11.584;2022-11-11T00:38:05;3.25;;;1.58;;
4452;SDS011;2239;48.152;11.584;2022-11-11T00:40:35;1.52;;;1.30;;
4452;SDS011;2239;48.152;11.584;2022-11-11T00:43:01;1.07;;;0.97;;
4452;SDS011;2239;48.152;11.584;2022-11-11T00:45:27;1.37;;;0.97;;
4452;SDS011;2239;48.152;11.584;2022-11-11T00:47:52;1.20;;;0.73;;
4452;SDS011;2239;48.152;11.584;2022-11-11T00:50:36;2.28;;;1.10;;
4452;SDS011;2239;48.152;11.584;2022-11-11T00:53:22;0.63;;;0.60;;
4452;SDS011;2239;48.152;11.584;2022-11-11T00:55:49;1.20;;;1.10;;
4452;SDS011;2239;48.152;11.584;2022-11-11T00:58:15;3.90;;;1.10;;
4452;SDS011;2239;48.152;11.584;2022-11-11T01:00:43;1.25;;;0.90;;
4452;SDS011;2239;48.152;11.584;2022-11-11T01:03:09;2.03;;;0.70;;
4452;SDS011;2239;48.152;11.584;2022-11-11T01:05:37;1.37;;;1.10;;
4452;SDS011;2239;48.152;11.584;2022-11-11T01:08:03;2.13;;;1.25;;
4452;SDS011;2239;48.152;11.584;2022-11-11T01:10:29;1.10;;;0.70;;
4452;SDS011;2239;48.152;11.584;2022-11-11T01:13:06;2.08;;;1.13;;
4452;SDS011;2239;48.152;11.584;2022-11-11T01:15:41;1.67;;;1.10;;
4452;SDS011;2239;48.152;11.584;2022-11-11T01:18:09;1.13;;;0.80;;
4452;SDS011;2239;48.152;11.584;2022-11-11T01:20:35;3.35;;;1.15;;
4452;SDS011;2239;48.152;11.584;2022-11-11T01:23:05;0.88;;;0.82;;
4452;SDS011;2239;48.152;11.584;2022-11-11T01:25:32;1.83;;;0.80;;
4452;SDS011;2239;48.152;11.584;2022-11-11T01:27:59;1.15;;;0.68;;
4452;SDS011;2239;48.152;11.584;2022-11-11T01:30:25;0.97;;;0.90;;
4452;SDS011;2239;48.152;11.584;2022-11-11T01:32:51;1.13;;;0.60;;
4452;SDS011;2239;48.152;11.584;2022-11-11T01:35:16;1.50;;;0.80;;
4452;SDS011;2239;48.152;11.584;2022-11-11T01:37:42;2.00;;;0.93;;
4452;SDS011;2239;48.152;11.584;2022-11-11T01:40:07;1.67;;;1.03;;
4452;SDS011;2239;48.152;11.584;2022-11-11T01:48:07;0.95;;;0.70;;
4452;SDS011;2239;48.152;11.584;2022-11-11T01:50:57;0.55;;;0.47;;
4452;SDS011;2239;48.152;11.584;2022-11-11T01:53:22;1.00;;;0.60;;
4452;SDS011;2239;48.152;11.584;2022-11-11T01:55:48;1.07;;;0.70;;
4452;SDS011;2239;48.152;11.584;2022-11-11T01:58:14;1.40;;;0.97;;
4452;SDS011;2239;48.152;11.584;2022-11-11T02:00:42;1.00;;;0.82;;
4452;SDS011;2239;48.152;11.584;2022-11-11T02:03:08;2.80;;;0.97;;
4452;SDS011;2239;48.152;11.584;2022-11-11T02:05:35;1.35;;;0.50;;
4452;SDS011;2239;48.152;11.584;2022-11-11T02:08:15;0.50;;;0.50;;
4452;SDS011;2239;48.152;11.584;2022-11-11T02:10:58;1.60;;;1.13;;
4452;SDS011;2239;48.152;11.584;2022-11-11T02:13:38;0.68;;;0.65;;
4452;SDS011;2239;48.152;11.584;2022-11-11T02:16:29;1.15;;;0.95;;
4452;SDS011;2239;48.152;11.584;2022-11-11T02:18:54;1.03;;;0.90;;
4452;SDS011;2239;48.152;11.584;2022-11-11T02:21:32;1.47;;;0.80;;
4452;SDS011;2239;48.152;11.584;2022-11-11T02:24:06;2.78;;;1.30;;
4452;SDS011;2239;48.152;11.584;2022-11-11T02:26:35;1.15;;;0.73;;
4452;SDS011;2239;48.152;11.584;2022-11-11T02:29:03;3.33;;;1.38;;
4452;SDS011;2239;48.152;11.584;2022-11-11T02:31:37;2.67;;;0.75;;
4452;SDS011;2239;48.152;11.584;2022-11-11T02:34:02;2.40;;;1.20;;
4452;SDS011;2239;48.152;11.584;2022-11-11T02:36:28;0.93;;;0.67;;
4452;SDS011;2239;48.152;11.584;2022-11-11T02:38:53;1.67;;;0.90;;
4452;SDS011;2239;48.152;11.584;2022-11-11T02:41:19;1.07;;;0.97;;
4452;SDS011;2239;48.152;11.584;2022-11-11T02:44:03;2.25;;;0.80;;
4452;SDS011;2239;48.152;11.584;2022-11-11T02:46:29;2.30;;;1.13;;
4452;SDS011;2239;48.152;11.584;2022-11-11T02:48:54;2.67;;;0.83;;
4452;SDS011;2239;48.152;11.584;2022-11-11T02:51:20;1.20;;;0.90;;
4452;SDS011;2239;48.152;11.584;2022-11-11T02:53:45;1.43;;;0.90;;
4452;SDS011;2239;48.152;11.584;2022-11-11T02:56:11;2.07;;;0.93;;
4452;SDS011;2239;48.152;11.584;2022-11-11T02:58:36;1.23;;;0.73;;
4452;SDS011;2239;48.152;11.584;2022-11-11T03:01:02;1.10;;;0.97;;
4452;SDS011;2239;48.152;11.584;2022-11-11T03:03:28;1.27;;;0.80;;
4452;SDS011;2239;48.152;11.584;2022-11-11T03:05:53;1.37;;;0.97;;
4452;SDS011;2239;48.152;11.584;2022-11-11T03:08:19;0.73;;;0.70;;
4452;SDS011;2239;48.152;11.584;2022-11-11T03:10:44;1.13;;;0.80;;
4452;SDS011;2239;48.152;11.584;2022-11-11T03:13:10;1.10;;;0.63;;
4452;SDS011;2239;48.152;11.584;2022-11-11T03:15:35;3.03;;;1.40;;
4452;SDS011;2239;48.152;11.584;2022-11-11T03:18:01;0.80;;;0.80;;
4452;SDS011;2239;48.152;11.584;2022-11-11T03:20:26;3.40;;;0.60;;
4452;SDS011;2239;48.152;11.584;2022-11-11T03:23:12;1.02;;;0.73;;
4452;SDS011;2239;48.152;11.584;2022-11-11T03:25:40;0.70;;;0.68;;
4452;SDS011;2239;48.152;11.584;2022-11-11T03:28:16;0.88;;;0.57;;
4452;SDS011;2239;48.152;11.584;2022-11-11T03:30:45;2.60;;;0.77;;
4452;SDS011;2239;48.152;11.584;2022-11-11T03:33:12;0.65;;;0.60;;
4452;SDS011;2239;48.152;11.584;2022-11-11T03:35:39;4.20;;;1.02;;
4452;SDS011;2239;48.152;11.584;2022-11-11T03:38:05;0.80;;;0.80;;
4452;SDS011;2239;48.152;11.584;2022-11-11T03:40:49;1.33;;;1.17;;
4452;SDS011;2239;48.152;11.584;2022-11-11T03:43:17;1.23;;;0.88;;
4452;SDS011;2239;48.152;11.584;2022-11-11T03:45:44;2.97;;;0.70;;
4452;SDS011;2239;48.152;11.584;2022-11-11T03:48:10;2.75;;;0.73;;
4452;SDS011;2239;48.152;11.584;2022-11-11T03:50:36;0.73;;;0.57;;
4452;SDS011;2239;48.152;11.584;2022-11-11T03:53:02;1.47;;;0.80;;
4452;SDS011;2239;48.152;11.584;2022-11-11T03:55:28;0.80;;;0.60;;
4452;SDS011;2239;48.152;11.584;2022-11-11T03:57:53;1.13;;;0.60;;
4452;SDS011;2239;48.152;11.584;2022-11-11T04:00:20;1.17;;;0.60;;
4452;SDS011;2239;48.152;11.584;2022-11-11T04:02:48;0.80;;;0.60;;
4452;SDS011;2239;48.152;11.584;2022-11-11T04:05:32;1.30;;;0.95;;
4452;SDS011;2239;48.152;11.584;2022-11-11T04:08:17;0.63;;;0.63;;
4452;SDS011;2239;48.152;11.584;2022-11-11T04:11:07;0.40;;;0.40;;
4452;SDS011;2239;48.152;11.584;2022-11-11T04:13:36;1.17;;;0.50;;
4452;SDS011;2239;48.152;11.584;2022-11-11T04:16:21;1.77;;;1.05;;
4452;SDS011;2239;48.152;11.584;2022-11-11T04:18:47;0.80;;;0.60;;
4452;SDS011;2239;48.152;11.584;2022-11-11T04:21:31;1.30;;;0.90;;
4452;SDS011;2239;48.152;11.584;2022-11-11T04:24:19;0.68;;;0.60;;
4452;SDS011;2239;48.152;11.584;2022-11-11T04:27:04;1.48;;;0.60;;
4452;SDS011;2239;48.152;11.584;2022-11-11T04:29:32;0.50;;;0.40;;
4452;SDS011;2239;48.152;11.584;2022-11-11T04:34:47;0.50;;;0.50;;
4452;SDS011;2239;48.152;11.584;2022-11-11T04:37:20;0.50;;;0.40;;
4452;SDS011;2239;48.152;11.584;2022-11-11T04:39:46;0.50;;;0.50;;
4452;SDS011;2239;48.152;11.584;2022-11-11T04:42:31;1.95;;;0.40;;
4452;SDS011;2239;48.152;11.584;2022-11-11T04:44:57;0.50;;;0.40;;
4452;SDS011;2239;48.152;11.584;2022-11-11T04:48:03;1.33;;;0.90;;
4452;SDS011;2239;48.152;11.584;2022-11-11T04:50:43;0.70;;;0.60;;
4452;SDS011;2239;48.152;11.584;2022-11-11T04:53:09;2.03;;;0.63;;
4452;SDS011;2239;48.152;11.584;2022-11-11T04:55:40;1.25;;;0.82;;
4452;SDS011;2239;48.152;11.584;2022-11-11T04:58:26;1.55;;;1.00;;
4452;SDS011;2239;48.152;11.584;2022-11-11T05:00:53;1.77;;;0.50;;
4452;SDS011;2239;48.152;11.584;2022-11-11T05:03:19;0.83;;;0.63;;
4452;SDS011;2239;48.152;11.584;2022-11-11T05:05:51;1.48;;;0.50;;
4452;SDS011;2239;48.152;11.584;2022-11-11T05:08:42;2.25;;;0.85;;
4452;SDS011;2239;48.152;11.584;2022-11-11T05:13:48;0.75;;;0.63;;
4452;SDS011;2239;48.152;11.584;2022-11-11T05:16:33;0.60;;;0.60;;
4452;SDS011;2239;48.152;11.584;2022-11-11T05:19:21;1.35;;;0.50;;
4452;SDS011;2239;48.152;11.584;2022-11-11T05:22:10;0.85;;;0.50;;
4452;SDS011;2239;48.152;11.584;2022-11-11T05:24:40;0.50;;;0.40;;
4452;SDS011;2239;48.152;11.584;2022-11-11T05:27:24;2.40;;;0.90;;
4452;SDS011;2239;48.152;11.584;2022-11-11T05:29:50;0.55;;;0.55;;
4452;SDS011;2239;48.152;11.584;2022-11-11T05:32:17;1.20;;;0.50;;
4452;SDS011;2239;48.152;11.584;2022-11-11T05:34:44;0.65;;;0.60;;
4452;SDS011;2239;48.152;11.584;2022-11-11T05:37:10;1.15;;;0.50;;
4452;SDS011;2239;48.152;11.584;2022-11-11T05:39:36;0.77;;;0.60;;
4452;SDS011;2239;48.152;11.584;2022-11-11T05:42:02;0.70;;;0.53;;
4452;SDS011;2239;48.152;11.584;2022-11-11T05:44:28;0.50;;;0.50;;
4452;SDS011;2239;48.152;11.584;2022-11-11T05:46:54;1.33;;;0.70;;
4452;SDS011;2239;48.152;11.584;2022-11-11T05:49:19;3.17;;;0.67;;
4452;SDS011;2239;48.152;11.584;2022-11-11T05:51:45;0.90;;;0.60;;
4452;SDS011;2239;48.152;11.584;2022-11-11T05:54:11;0.60;;;0.50;;
4452;SDS011;2239;48.152;11.584;2022-11-11T05:56:38;0.57;;;0.57;;
4452;SDS011;2239;48.152;11.584;2022-11-11T05:59:04;0.80;;;0.70;;
4452;SDS011;2239;48.152;11.584;2022-11-11T06:01:30;1.00;;;0.60;;
4452;SDS011;2239;48.152;11.584;2022-11-11T06:03:56;1.43;;;0.60;;
4452;SDS011;2239;48.152;11.584;2022-11-11T06:06:21;2.00;;;1.43;;
4452;SDS011;2239;48.152;11.584;2022-11-11T06:08:47;0.90;;;0.60;;
4452;SDS011;2239;48.152;11.584;2022-11-11T06:11:13;4.17;;;0.97;;
4452;SDS011;2239;48.152;11.584;2022-11-11T06:13:38;0.50;;;0.50;;
4452;SDS011;2239;48.152;11.584;2022-11-11T06:16:04;3.07;;;0.73;;
4452;SDS011;2239;48.152;11.584;2022-11-11T06:18:30;0.90;;;0.60;;
4452;SDS011;2239;48.152;11.584;2022-11-11T06:20:56;0.50;;;0.50;;
4452;SDS011;2239;48.152;11.584;2022-11-11T06:23:23;0.85;;;0.65;;
4452;SDS011;2239;48.152;11.584;2022-11-11T06:25:50;0.68;;;0.65;;
4452;SDS011;2239;48.152;11.584;2022-11-11T06:28:34;0.95;;;0.70;;
4452;SDS011;2239;48.152;11.584;2022-11-11T06:31:00;0.60;;;0.60;;
4452;SDS011;2239;48.152;11.584;2022-11-11T06:33:26;0.70;;;0.60;;
4452;SDS011;2239;48.152;11.584;2022-11-11T06:35:52;0.80;;;0.77;;
4452;SDS011;2239;48.152;11.584;2022-11-11T06:38:17;0.60;;;0.60;;
4452;SDS011;2239;48.152;11.584;2022-11-11T06:40:43;1.33;;;0.77;;
4452;SDS011;2239;48.152;11.584;2022-11-11T06:43:10;1.85;;;0.90;;
4452;SDS011;2239;48.152;11.584;2022-11-11T06:45:36;2.25;;;0.93;;
4452;SDS011;2239;48.152;11.584;2022-11-11T06:48:02;1.03;;;0.87;;
4452;SDS011;2239;48.152;11.584;2022-11-11T06:50:29;1.35;;;0.93;;
4452;SDS011;2239;48.152;11.584;2022-11-11T06:53:07;1.00;;;0.60;;
4452;SDS011;2239;48.152;11.584;2022-11-11T06:55:34;2.45;;;0.88;;
4452;SDS011;2239;48.152;11.584;2022-11-11T06:58:07;1.15;;;0.77;;
4452;SDS011;2239;48.152;11.584;2022-11-11T07:00:35;1.50;;;0.70;;
4452;SDS011;2239;48.152;11.584;2022-11-11T07:03:05;0.60;;;0.60;;
4452;SDS011;2239;48.152;11.584;2022-11-11T07:05:32;1.15;;;0.57;;
4452;SDS011;2239;48.152;11.584;2022-11-11T07:08:01;1.00;;;0.60;;
4452;SDS011;2239;48.152;11.584;2022-11-11T07:10:28;0.90;;;0.80;;
4452;SDS011;2239;48.152;11.584;2022-11-11T07:12:54;0.73;;;0.73;;
4452;SDS011;2239;48.152;11.584;2022-11-11T07:15:19;1.17;;;0.60;;
4452;SDS011;2239;48.152;11.584;2022-11-11T07:17:45;1.70;;;0.80;;
4452;SDS011;2239;48.152;11.584;2022-11-11T07:20:10;2.03;;;1.10;;
4452;SDS011;2239;48.152;11.584;2022-11-11T07:22:36;1.23;;;0.70;;
4452;SDS011;2239;48.152;11.584;2022-11-11T07:25:02;0.60;;;0.50;;
4452;SDS011;2239;48.152;11.584;2022-11-11T07:27:28;1.98;;;0.90;;
4452;SDS011;2239;48.152;11.584;2022-11-11T07:29:54;2.03;;;0.80;;
4452;SDS011;2239;48.152;11.584;2022-11-11T07:32:19;1.47;;;0.50;;
4452;SDS011;2239;48.152;11.584;2022-11-11T07:34:45;0.80;;;0.70;;
4452;SDS011;2239;48.152;11.584;2022-11-11T07:37:10;2.33;;;1.23;;
4452;SDS011;2239;48.152;11.584;2022-11-11T07:39:36;2.00;;;0.60;;
4452;SDS011;2239;48.152;11.584;2022-11-11T07:42:02;0.80;;;0.80;;
4452;SDS011;2239;48.152;11.584;2022-11-11T07:44:27;2.63;;;1.00;;
4452;SDS011;2239;48.152;11.584;2022-11-11T07:46:53;1.10;;;0.60;;
4452;SDS011;2239;48.152;11.584;2022-11-11T07:49:19;0.93;;;0.77;;
4452;SDS011;2239;48.152;11.584;2022-11-11T07:51:44;2.37;;;1.03;;
4452;SDS011;2239;48.152;11.584;2022-11-11T07:54:10;0.90;;;0.80;;
4452;SDS011;2239;48.152;11.584;2022-11-11T07:56:35;0.50;;;0.50;;
4452;SDS011;2239;48.152;11.584;2022-11-11T07:59:01;3.00;;;0.93;;
4452;SDS011;2239;48.152;11.584;2022-11-11T08:01:26;1.57;;;0.80;;
4452;SDS011;2239;48.152;11.584;2022-11-11T08:03:52;0.93;;;0.83;;
4452;SDS011;2239;48.152;11.584;2022-11-11T08:06:18;1.97;;;1.00;;
4452;SDS011;2239;48.152;11.584;2022-11-11T08:08:45;1.60;;;1.03;;
4452;SDS011;2239;48.152;11.584;2022-11-11T08:11:10;0.90;;;0.80;;
4452;SDS011;2239;48.152;11.584;2022-11-11T08:13:37;2.37;;;1.50;;
4452;SDS011;2239;48.152;11.584;2022-11-11T08:16:06;1.90;;;1.10;;
4452;SDS011;2239;48.152;11.584;2022-11-11T08:18:33;3.40;;;1.20;;
4452;SDS011;2239;48.152;11.584;2022-11-11T08:20:59;1.53;;;1.20;;
4452;SDS011;2239;48.152;11.584;2022-11-11T08:23:24;1.07;;;0.97;;
4452;SDS011;2239;48.152;11.584;2022-11-11T08:26:06;1.03;;;0.70;;
4452;SDS011;2239;48.152;11.584;2022-11-11T08:28:32;3.37;;;1.23;;
4452;SDS011;2239;48.152;11.584;2022-11-11T08:30:59;3.97;;;0.93;;
4452;SDS011;2239;48.152;11.584;2022-11-11T08:33:26;1.50;;;1.10;;
4452;SDS011;2239;48.152;11.584;2022-11-11T08:35:52;1.77;;;0.97;;
4452;SDS011;2239;48.152;11.584;2022-11-11T08:38:19;4.67;;;1.27;;
4452;SDS011;2239;48.152;11.584;2022-11-11T08:40:48;1.60;;;1.13;;
4452;SDS011;2239;48.152;11.584;2022-11-11T08:43:14;1.67;;;1.57;;
4452;SDS011;2239;48.152;11.584;2022-11-11T08:45:39;14.77;;;2.13;;
4452;SDS011;2239;48.152;11.584;2022-11-11T08:48:05;1.40;;;1.30;;
4452;SDS011;2239;48.152;11.584;2022-11-11T08:50:34;1.53;;;0.70;;
4452;SDS011;2239;48.152;11.584;2022-11-11T08:53:00;2.23;;;1.10;;
4452;SDS011;2239;48.152;11.584;2022-11-11T08:55:26;2.13;;;1.50;;
4452;SDS011;2239;48.152;11.584;2022-11-11T08:57:58;1.53;;;1.43;;
4452;SDS011;2239;48.152;11.584;2022-11-11T09:00:24;1.87;;;1.27;;
4452;SDS011;2239;48.152;11.584;2022-11-11T09:02:50;1.53;;;0.90;;
4452;SDS011;2239;48.152;11.584;2022-11-11T09:05:16;1.67;;;1.00;;
4452;SDS011;2239;48.152;11.584;2022-11-11T09:07:42;3.43;;;1.00;;
4452;SDS011;2239;48.152;11.584;2022-11-11T09:10:08;7.97;;;1.70;;
4452;SDS011;2239;48.152;11.584;2022-11-11T09:12:35;3.07;;;1.07;;
4452;SDS011;2239;48.152;11.584;2022-11-11T09:15:00;2.57;;;1.30;;
4452;SDS011;2239;48.152;11.584;2022-11-11T09:17:26;2.00;;;0.90;;
4452;SDS011;2239;48.152;11.584;2022-11-11T09:19:52;4.87;;;1.10;;
4452;SDS011;2239;48.152;11.584;2022-11-11T09:22:18;2.30;;;0.90;;
4452;SDS011;2239;48.152;11.584;2022-11-11T09:24:43;1.17;;;0.80;;
4452;SDS011;2239;48.152;11.584;2022-11-11T09:27:09;5.13;;;1.97;;
4452;SDS011;2239;48.152;11.584;2022-11-11T09:29:35;1.93;;;1.10;;
4452;SDS011;2239;48.152;11.584;2022-11-11T09:32:01;2.93;;;1.70;;
4452;SDS011;2239;48.152;11.584;2022-11-11T09:34:27;2.33;;;0.83;;
4452;SDS011;2239;48.152;11.584;2022-11-11T09:36:52;2.33;;;1.37;;
4452;SDS011;2239;48.152;11.584;2022-11-11T09:39:18;1.87;;;1.03;;
4452;SDS011;2239;48.152;11.584;2022-11-11T09:41:55;1.40;;;1.10;;
4452;SDS011;2239;48.152;11.584;2022-11-11T09:47:10;1.30;;;0.90;;
4452;SDS011;2239;48.152;11.584;2022-11-11T09:50:02;1.30;;;0.93;;
4452;SDS011;2239;48.152;11.584;2022-11-11T09:55:17;1.27;;;0.70;;
4452;SDS011;2239;48.152;11.584;2022-11-11T09:58:10;0.90;;;0.57;;
4452;SDS011;2239;48.152;11.584;2022-11-11T10:00:40;2.80;;;0.93;;
4452;SDS011;2239;48.152;11.584;2022-11-11T10:05:44;1.93;;;0.80;;
4452;SDS011;2239;48.152;11.584;2022-11-11T10:08:19;0.63;;;0.63;;
4452;SDS011;2239;48.152;11.584;2022-11-11T10:10:51;4.50;;;1.00;;
4452;SDS011;2239;48.152;11.584;2022-11-11T10:22:18;1.13;;;0.90;;
4452;SDS011;2239;48.152;11.584;2022-11-11T10:25:34;2.30;;;1.17;;
4452;SDS011;2239;48.152;11.584;2022-11-11T10:27:38;1.33;;;0.80;;
4452;SDS011;2239;48.152;11.584;2022-11-11T10:30:12;2.07;;;0.90;;
4452;SDS011;2239;48.152;11.584;2022-11-11T10:32:57;1.17;;;0.90;;
4452;SDS011;2239;48.152;11.584;2022-11-11T10:35:40;2.37;;;0.93;;
4452;SDS011;2239;48.152;11.584;2022-11-11T10:40:42;1.37;;;1.20;;
4452;SDS011;2239;48.152;11.584;2022-11-11T10:43:31;2.30;;;1.37;;
4452;SDS011;2239;48.152;11.584;2022-11-11T10:46:04;1.53;;;1.00;;
4452;SDS011;2239;48.152;11.584;2022-11-11T10:51:36;1.87;;;1.13;;
4452;SDS011;2239;48.152;11.584;2022-11-11T10:54:15;2.30;;;1.10;;
4452;SDS011;2239;48.152;11.584;2022-11-11T10:59:23;2.00;;;1.00;;
4452;SDS011;2239;48.152;11.584;2022-11-11T11:04:34;2.63;;;1.10;;
4452;SDS011;2239;48.152;11.584;2022-11-11T11:07:08;1.27;;;1.07;;
4452;SDS011;2239;48.152;11.584;2022-11-11T11:09:47;2.93;;;1.30;;
4452;SDS011;2239;48.152;11.584;2022-11-11T11:12:29;1.30;;;0.83;;
4452;SDS011;2239;48.152;11.584;2022-11-11T11:15:05;1.27;;;0.90;;
4452;SDS011;2239;48.152;11.584;2022-11-11T11:17:36;5.00;;;1.90;;
4452;SDS011;2239;48.152;11.584;2022-11-11T11:20:13;3.27;;;1.70;;
4452;SDS011;2239;48.152;11.584;2022-11-11T11:22:50;4.00;;;1.60;;
4452;SDS011;2239;48.152;11.584;2022-11-11T11:25:18;3.13;;;1.30;;
4452;SDS011;2239;48.152;11.584;2022-11-11T11:27:45;2.70;;;1.73;;
4452;SDS011;2239;48.152;11.584;2022-11-11T11:32:56;1.97;;;1.10;;
4452;SDS011;2239;48.152;11.584;2022-11-11T11:35:30;1.33;;;1.20;;
4452;SDS011;2239;48.152;11.584;2022-11-11T11:38:04;2.67;;;1.50;;
4452;SDS011;2239;48.152;11.584;2022-11-11T11:43:32;1.30;;;1.20;;
4452;SDS011;2239;48.152;11.584;2022-11-11T11:46:01;3.93;;;1.80;;
4452;SDS011;2239;48.152;11.584;2022-11-11T11:51:21;3.17;;;2.07;;
4452;SDS011;2239;48.152;11.584;2022-11-11T11:57:10;2.97;;;1.40;;
4452;SDS011;2239;48.152;11.584;2022-11-11T11:59:59;3.50;;;1.80;;
4452;SDS011;2239;48.152;11.584;2022-11-11T12:11:11;3.27;;;1.70;;
4452;SDS011;2239;48.152;11.584;2022-11-11T12:14:15;2.60;;;1.50;;
4452;SDS011;2239;48.152;11.584;2022-11-11T12:25:01;3.70;;;1.80;;
4452;SDS011;2239;48.152;11.584;2022-11-11T12:27:48;1.43;;;1.13;;
4452;SDS011;2239;48.152;11.584;2022-11-11T12:30:28;2.40;;;1.37;;
4452;SDS011;2239;48.152;11.584;2022-11-11T12:36:07;2.80;;;1.90;;
4452;SDS011;2239;48.152;11.584;2022-11-11T12:38:48;2.90;;;1.50;;
4452;SDS011;2239;48.152;11.584;2022-11-11T12:41:58;4.13;;;1.90;;
4452;SDS011;2239;48.152;11.584;2022-11-11T12:47:29;1.50;;;1.40;;
4452;SDS011;2239;48.152;11.584;2022-11-11T13:01:03;2.87;;;1.50;;
4452;SDS011;2239;48.152;11.584;2022-11-11T13:06:46;1.90;;;1.60;;
4452;SDS011;2239;48.152;11.584;2022-11-11T13:09:22;3.20;;;1.37;;
4452;SDS011;2239;48.152;11.584;2022-11-11T13:12:03;2.80;;;1.60;;
4452;SDS011;2239;48.152;11.584;2022-11-11T13:14:48;2.43;;;1.33;;
4452;SDS011;2239;48.152;11.584;2022-11-11T13:17:16;3.07;;;1.30;;
4452;SDS011;2239;48.152;11.584;2022-11-11T13:22:25;3.30;;;1.57;;
4452;SDS011;2239;48.152;11.584;2022-11-11T13:24:56;2.53;;;1.53;;
4452;SDS011;2239;48.152;11.584;2022-11-11T13:27:26;2.53;;;1.40;;
4452;SDS011;2239;48.152;11.584;2022-11-11T13:33:03;1.93;;;1.13;;
4452;SDS011;2239;48.152;11.584;2022-11-11T13:35:42;1.70;;;1.27;;
4452;SDS011;2239;48.152;11.584;2022-11-11T13:40:53;1.60;;;1.10;;
4452;SDS011;2239;48.152;11.584;2022-11-11T13:43:24;3.17;;;1.60;;
4452;SDS011;2239;48.152;11.584;2022-11-11T13:45:52;2.30;;;1.50;;
4452;SDS011;2239;48.152;11.584;2022-11-11T13:48:23;1.37;;;1.00;;
4452;SDS011;2239;48.152;11.584;2022-11-11T13:51:10;2.37;;;1.10;;
4452;SDS011;2239;48.152;11.584;2022-11-11T13:53:40;0.90;;;0.90;;
4452;SDS011;2239;48.152;11.584;2022-11-11T13:56:07;1.73;;;1.30;;
4452;SDS011;2239;48.152;11.584;2022-11-11T13:58:36;3.17;;;1.67;;
4452;SDS011;2239;48.152;11.584;2022-11-11T14:01:05;2.40;;;1.60;;
4452;SDS011;2239;48.152;11.584;2022-11-11T14:13:49;3.07;;;1.37;;
4452;SDS011;2239;48.152;11.584;2022-11-11T14:19:21;2.47;;;1.80;;
4452;SDS011;2239;48.152;11.584;2022-11-11T14:21:56;1.73;;;1.13;;
4452;SDS011;2239;48.152;11.584;2022-11-11T14:24:42;3.27;;;2.30;;
4452;SDS011;2239;48.152;11.584;2022-11-11T14:27:24;2.20;;;1.50;;
4452;SDS011;2239;48.152;11.584;2022-11-11T14:29:55;4.20;;;1.40;;
4452;SDS011;2239;48.152;11.584;2022-11-11T15:05:53;2.40;;;1.70;;
4452;SDS011;2239;48.152;11.584;2022-11-11T15:08:24;3.90;;;2.30;;
4452;SDS011;2239;48.152;11.584;2022-11-11T15:14:03;4.00;;;1.57;;
4452;SDS011;2239;48.152;11.584;2022-11-11T15:16:50;1.67;;;1.53;;
4452;SDS011;2239;48.152;11.584;2022-11-11T15:28:06;3.73;;;2.20;;
4452;SDS011;2239;48.152;11.584;2022-11-11T15:36:30;2.00;;;1.40;;
4452;SDS011;2239;48.152;11.584;2022-11-11T15:39:14;6.63;;;2.00;;
4452;SDS011;2239;48.152;11.584;2022-11-11T15:41:42;7.17;;;2.90;;
4452;SDS011;2239;48.152;11.584;2022-11-11T15:44:33;1.90;;;1.50;;
4452;SDS011;2239;48.152;11.584;2022-11-11T15:46:59;4.60;;;2.63;;
4452;SDS011;2239;48.152;11.584;2022-11-11T15:49:44;2.37;;;1.43;;
4452;SDS011;2239;48.152;11.584;2022-11-11T15:52:25;5.50;;;2.43;;
4452;SDS011;2239;48.152;11.584;2022-11-11T15:54:55;4.47;;;2.23;;
4452;SDS011;2239;48.152;11.584;2022-11-11T15:57:22;2.80;;;1.73;;
4452;SDS011;2239;48.152;11.584;2022-11-11T16:00:00;5.57;;;2.03;;
4452;SDS011;2239;48.152;11.584;2022-11-11T16:02:32;2.00;;;1.50;;
4452;SDS011;2239;48.152;11.584;2022-11-11T16:05:14;3.03;;;2.03;;
4452;SDS011;2239;48.152;11.584;2022-11-11T16:07:48;3.37;;;1.73;;
4452;SDS011;2239;48.152;11.584;2022-11-11T16:10:34;8.50;;;2.40;;
4452;SDS011;2239;48.152;11.584;2022-11-11T16:15:39;3.43;;;1.73;;
4452;SDS011;2239;48.152;11.584;2022-11-11T16:18:09;3.03;;;2.07;;
4452;SDS011;2239;48.152;11.584;2022-11-11T16:20:41;3.10;;;2.10;;
4452;SDS011;2239;48.152;11.584;2022-11-11T16:23:17;2.93;;;1.27;;
4452;SDS011;2239;48.152;11.584;2022-11-11T16:25:44;3.43;;;1.87;;
4452;SDS011;2239;48.152;11.584;2022-11-11T16:28:11;3.60;;;1.53;;
4452;SDS011;2239;48.152;11.584;2022-11-11T16:30:38;6.40;;;1.90;;
4452;SDS011;2239;48.152;11.584;2022-11-11T16:33:03;4.63;;;2.37;;
4452;SDS011;2239;48.152;11.584;2022-11-11T16:35:42;5.90;;;1.77;;
4452;SDS011;2239;48.152;11.584;2022-11-11T16:38:07;4.97;;;1.93;;
4452;SDS011;2239;48.152;11.584;2022-11-11T16:40:34;3.50;;;1.67;;
4452;SDS011;2239;48.152;11.584;2022-11-11T16:45:46;3.23;;;1.90;;
4452;SDS011;2239;48.152;11.584;2022-11-11T16:51:06;3.13;;;1.80;;
4452;SDS011;2239;48.152;11.584;2022-11-11T16:53:48;5.77;;;1.93;;
4452;SDS011;2239;48.152;11.584;2022-11-11T16:56:19;3.90;;;1.93;;
4452;SDS011;2239;48.152;11.584;2022-11-11T16:58:55;3.87;;;2.03;;
4452;SDS011;2239;48.152;11.584;2022-11-11T17:01:24;4.00;;;1.70;;
4452;SDS011;2239;48.152;11.584;2022-11-11T17:03:58;2.87;;;1.50;;
4452;SDS011;2239;48.152;11.584;2022-11-11T17:09:25;3.47;;;2.20;;
4452;SDS011;2239;48.152;11.584;2022-11-11T17:12:00;4.53;;;1.63;;
4452;SDS011;2239;48.152;11.584;2022-11-11T17:14:27;12.20;;;1.93;;
4452;SDS011;2239;48.152;11.584;2022-11-11T17:16:54;2.33;;;1.80;;
4452;SDS011;2239;48.152;11.584;2022-11-11T17:19:21;4.60;;;2.10;;
4452;SDS011;2239;48.152;11.584;2022-11-11T17:21:47;3.90;;;2.20;;
4452;SDS011;2239;48.152;11.584;2022-11-11T17:24:13;3.43;;;2.00;;
4452;SDS011;2239;48.152;11.584;2022-11-11T17:26:39;3.07;;;1.83;;
4452;SDS011;2239;48.152;11.584;2022-11-11T17:29:05;3.33;;;1.97;;
4452;SDS011;2239;48.152;11.584;2022-11-11T17:31:31;4.80;;;1.90;;
4452;SDS011;2239;48.152;11.584;2022-11-11T17:33:57;4.67;;;2.20;;
4452;SDS011;2239;48.152;11.584;2022-11-11T17:36:22;3.63;;;1.70;;
4452;SDS011;2239;48.152;11.584;2022-11-11T17:38:48;4.30;;;2.23;;
4452;SDS011;2239;48.152;11.584;2022-11-11T17:41:13;3.80;;;1.67;;
4452;SDS011;2239;48.152;11.584;2022-11-11T17:43:39;5.10;;;1.90;;
4452;SDS011;2239;48.152;11.584;2022-11-11T17:46:05;4.57;;;1.97;;
4452;SDS011;2239;48.152;11.584;2022-11-11T17:48:31;3.23;;;1.97;;
4452;SDS011;2239;48.152;11.584;2022-11-11T17:50:57;6.67;;;2.10;;
4452;SDS011;2239;48.152;11.584;2022-11-11T17:53:23;2.80;;;2.10;;
4452;SDS011;2239;48.152;11.584;2022-11-11T17:55:48;11.00;;;3.00;;
4452;SDS011;2239;48.152;11.584;2022-11-11T17:58:17;8.80;;;4.03;;
4452;SDS011;2239;48.152;11.584;2022-11-11T18:00:43;7.10;;;2.97;;
4452;SDS011;2239;48.152;11.584;2022-11-11T18:03:10;3.60;;;2.17;;
4452;SDS011;2239;48.152;11.584;2022-11-11T18:05:36;4.63;;;2.50;;
4452;SDS011;2239;48.152;11.584;2022-11-11T18:08:01;3.73;;;2.40;;
4452;SDS011;2239;48.152;11.584;2022-11-11T18:10:27;4.73;;;2.23;;
4452;SDS011;2239;48.152;11.584;2022-11-11T18:12:53;7.20;;;3.00;;